Time;durP1;ratioP1;P1;durP2;ratioP2;P2;SDS_P1;SDS_P2;PMS_P1;PMS_P2;Temp;Humidity;BMP_temperature;BMP_pressure;BME280_temperature;BME280_humidity;BME280_pressure;Samples;Min_cycle;Max_cycle;Signal;HPM_P1;HPM_P2
2022/09/27 00:00:21;;;;;;;8.35;1.60;;;;;;;;;;5014433;28;20103;-85
2022/09/27 00:02:48;;;;;;;11.07;1.48;;;;;;;;;;5004565;28;20050;-85
2022/09/27 00:05:14;;;;;;;8.93;1.33;;;;;;;;;;5002188;28;20038;-85
2022/09/27 00:07:40;;;;;;;8.88;1.38;;;;;;;;;;5011404;28;20060;-84
2022/09/27 00:10:07;;;;;;;11.02;1.30;;;;;;;;;;5013712;28;20058;-84
2022/09/27 00:12:33;;;;;;;11.07;1.60;;;;;;;;;;5034661;28;20496;-84
2022/09/27 00:15:00;;;;;;;10.50;1.48;;;;;;;;;;5002106;28;20128;-85
2022/09/27 00:17:26;;;;;;;12.25;2.28;;;;;;;;;;5008554;28;20104;-84
2022/09/27 00:19:54;;;;;;;11.20;1.52;;;;;;;;;;5007479;28;20046;-86
2022/09/27 00:22:21;;;;;;;7.03;1.23;;;;;;;;;;5005968;28;20526;-84
2022/09/27 00:24:47;;;;;;;10.23;1.30;;;;;;;;;;5006665;28;20037;-84
2022/09/27 00:27:13;;;;;;;11.60;1.67;;;;;;;;;;5007656;28;20045;-85
2022/09/27 00:29:39;;;;;;;8.45;1.27;;;;;;;;;;5008199;28;20081;-87
2022/09/27 00:32:05;;;;;;;12.15;1.30;;;;;;;;;;5009522;28;20041;-85
2022/09/27 00:34:39;;;;;;;12.65;1.42;;;;;;;;;;5006485;28;20049;-85
2022/09/27 00:37:05;;;;;;;11.10;1.15;;;;;;;;;;5004665;28;20057;-85
2022/09/27 00:39:34;;;;;;;7.53;1.13;;;;;;;;;;5006098;28;20654;-85
2022/09/27 00:42:00;;;;;;;9.68;1.55;;;;;;;;;;5004384;28;20050;-85
2022/09/27 00:44:32;;;;;;;9.27;1.17;;;;;;;;;;5006533;28;20343;-84
2022/09/27 00:46:58;;;;;;;10.45;1.08;;;;;;;;;;5005188;28;20492;-83
2022/09/27 00:49:24;;;;;;;5.53;1.10;;;;;;;;;;5006190;28;20508;-85
2022/09/27 00:51:53;;;;;;;10.45;1.10;;;;;;;;;;5012957;28;20053;-86
2022/09/27 00:54:20;;;;;;;8.93;1.13;;;;;;;;;;5012154;28;20038;-85
2022/09/27 00:56:46;;;;;;;11.65;1.33;;;;;;;;;;5011836;28;20049;-86
2022/09/27 00:59:44;;;;;;;6.15;1.05;;;;;;;;;;5009632;28;20042;-86
2022/09/27 01:02:11;;;;;;;10.00;1.60;;;;;;;;;;4975660;28;20054;-85
2022/09/27 01:04:38;;;;;;;8.35;1.27;;;;;;;;;;5012755;28;20042;-85
2022/09/27 01:07:04;;;;;;;7.78;1.25;;;;;;;;;;5011395;28;20096;-84
2022/09/27 01:09:34;;;;;;;8.27;1.38;;;;;;;;;;4997151;28;20500;-87
2022/09/27 01:12:12;;;;;;;9.15;1.40;;;;;;;;;;5003706;28;20049;-85
2022/09/27 01:14:41;;;;;;;8.90;1.60;;;;;;;;;;5009100;28;20499;-84
2022/09/27 01:17:20;;;;;;;10.25;1.48;;;;;;;;;;5003800;28;20108;-85
2022/09/27 01:19:56;;;;;;;7.60;0.90;;;;;;;;;;5007056;28;20057;-84
2022/09/27 01:22:41;;;;;;;7.40;1.10;;;;;;;;;;5012434;28;20053;-86
2022/09/27 01:25:25;;;;;;;7.28;1.10;;;;;;;;;;5012544;28;20045;-85
2022/09/27 01:28:10;;;;;;;8.23;1.05;;;;;;;;;;5011274;28;20381;-85
2022/09/27 01:30:38;;;;;;;9.00;1.52;;;;;;;;;;5003766;28;20045;-84
2022/09/27 01:33:14;;;;;;;9.20;1.27;;;;;;;;;;5007743;28;20653;-85
2022/09/27 01:35:51;;;;;;;9.32;1.30;;;;;;;;;;5010157;28;20094;-84
2022/09/27 01:38:29;;;;;;;12.20;1.77;;;;;;;;;;5010745;28;20037;-85
2022/09/27 01:40:58;;;;;;;6.95;1.25;;;;;;;;;;5011868;28;20455;-84
2022/09/27 01:43:30;;;;;;;9.93;1.10;;;;;;;;;;5005215;28;20503;-85
2022/09/27 01:46:06;;;;;;;7.93;1.00;;;;;;;;;;5006324;28;20042;-84
2022/09/27 01:48:36;;;;;;;7.05;0.90;;;;;;;;;;5011507;28;20046;-83
2022/09/27 01:51:07;;;;;;;7.43;1.17;;;;;;;;;;5009427;28;20495;-85
2022/09/27 01:53:39;;;;;;;9.98;1.10;;;;;;;;;;5011813;28;20041;-84
2022/09/27 01:56:07;;;;;;;10.35;1.05;;;;;;;;;;5010383;28;20487;-83
2022/09/27 01:58:40;;;;;;;5.85;1.25;;;;;;;;;;5010954;28;20052;-86
2022/09/27 02:01:08;;;;;;;8.80;1.10;;;;;;;;;;5011342;28;20511;-86
2022/09/27 02:03:40;;;;;;;7.47;0.80;;;;;;;;;;5004835;28;20050;-85
2022/09/27 02:06:09;;;;;;;9.18;0.95;;;;;;;;;;4999365;28;20042;-84
2022/09/27 02:08:41;;;;;;;7.40;1.08;;;;;;;;;;4973280;28;1089765;-84
2022/09/27 02:11:12;;;;;;;6.82;0.90;;;;;;;;;;4996289;28;20057;-83
2022/09/27 02:13:38;;;;;;;10.68;1.15;;;;;;;;;;5004093;28;20053;-84
2022/09/27 02:16:19;;;;;;;8.55;1.23;;;;;;;;;;5005542;28;20460;-84
2022/09/27 02:18:45;;;;;;;;;;;;;;;;;;5018460;28;20118;-84
2022/09/27 02:21:14;;;;;;;4.65;0.90;;;;;;;;;;5009844;28;19929;-83
2022/09/27 02:23:43;;;;;;;7.55;0.80;;;;;;;;;;5016008;28;20046;-86
2022/09/27 02:26:10;;;;;;;6.35;1.05;;;;;;;;;;5016039;28;20046;-86
2022/09/27 02:28:41;;;;;;;6.35;1.05;;;;;;;;;;5021133;28;20048;-85
2022/09/27 02:31:07;;;;;;;;;;;;;;;;;;5025998;28;20038;-86
2022/09/27 02:33:45;;;;;;;6.38;1.15;;;;;;;;;;5027238;28;19932;-87
2022/09/27 02:36:11;;;;;;;8.50;0.90;;;;;;;;;;5031205;28;20050;-86
2022/09/27 02:38:37;;;;;;;6.15;0.95;;;;;;;;;;5032496;28;20174;-87
2022/09/27 02:41:03;;;;;;;6.57;0.88;;;;;;;;;;5034050;28;20105;-86
2022/09/27 02:43:32;;;;;;;11.20;1.00;;;;;;;;;;5034940;28;20080;-89
2022/09/27 02:46:07;;;;;;;6.78;0.85;;;;;;;;;;5029520;28;20073;-87
2022/09/27 02:48:47;;;;;;;6.15;0.80;;;;;;;;;;5027053;28;20038;-87
2022/09/27 02:51:26;;;;;;;5.70;1.15;;;;;;;;;;5029024;28;20034;-87
2022/09/27 02:53:52;;;;;;;4.70;0.80;;;;;;;;;;5026898;28;20129;-87
2022/09/27 02:56:27;;;;;;;7.93;0.90;;;;;;;;;;5056120;28;20042;-86
2022/09/27 02:58:53;;;;;;;6.25;0.80;;;;;;;;;;5031245;28;20042;-87
2022/09/27 03:01:29;;;;;;;6.60;0.90;;;;;;;;;;5026329;28;20042;-87
2022/09/27 03:03:59;;;;;;;5.63;0.88;;;;;;;;;;5030495;28;20046;-86
2022/09/27 03:06:27;;;;;;;9.30;0.90;;;;;;;;;;5015741;28;20058;-88
2022/09/27 03:08:55;;;;;;;8.35;1.17;;;;;;;;;;5026058;28;20081;-86
2022/09/27 03:11:21;;;;;;;5.35;0.80;;;;;;;;;;5047226;28;20046;-88
2022/09/27 03:13:47;;;;;;;7.55;0.77;;;;;;;;;;5018136;28;20053;-86
2022/09/27 03:16:14;;;;;;;7.70;0.90;;;;;;;;;;5033813;28;20046;-86
2022/09/27 03:18:41;;;;;;;6.10;0.75;;;;;;;;;;5030296;28;20057;-87
2022/09/27 03:21:07;;;;;;;10.05;0.85;;;;;;;;;;5029639;28;20038;-87
2022/09/27 03:23:33;;;;;;;7.22;0.70;;;;;;;;;;5034039;28;20045;-86
2022/09/27 03:25:59;;;;;;;10.63;1.17;;;;;;;;;;5032783;28;20046;-86
2022/09/27 03:28:28;;;;;;;8.20;1.00;;;;;;;;;;5029947;28;20028;-87
2022/09/27 03:30:54;;;;;;;6.45;1.00;;;;;;;;;;5029769;28;20050;-87
2022/09/27 03:33:20;;;;;;;9.60;0.90;;;;;;;;;;5025096;28;20035;-87
2022/09/27 03:35:46;;;;;;;10.00;1.00;;;;;;;;;;5033061;28;20048;-86
2022/09/27 03:38:13;;;;;;;5.35;0.95;;;;;;;;;;5030480;28;20043;-86
2022/09/27 03:40:39;;;;;;;6.30;0.88;;;;;;;;;;5063595;28;20048;-85
2022/09/27 03:43:05;;;;;;;7.05;0.73;;;;;;;;;;5032710;28;20052;-86
2022/09/27 03:45:31;;;;;;;6.25;0.82;;;;;;;;;;5030665;28;20042;-86
2022/09/27 03:47:57;;;;;;;3.17;0.60;;;;;;;;;;5034514;28;20042;-86
2022/09/27 03:50:24;;;;;;;3.47;0.60;;;;;;;;;;5033456;28;20045;-88
2022/09/27 03:52:50;;;;;;;7.82;0.70;;;;;;;;;;5023472;28;20753;-88
2022/09/27 03:55:16;;;;;;;4.18;0.55;;;;;;;;;;5017299;28;20508;-87
2022/09/27 03:57:46;;;;;;;8.18;0.63;;;;;;;;;;5007827;28;20054;-87
2022/09/27 04:00:12;;;;;;;3.85;0.70;;;;;;;;;;4997349;28;20046;-87
2022/09/27 04:02:38;;;;;;;4.45;0.60;;;;;;;;;;5012256;28;20034;-85
2022/09/27 04:05:05;;;;;;;4.43;0.60;;;;;;;;;;5012587;28;20046;-86
2022/09/27 04:07:31;;;;;;;4.68;0.77;;;;;;;;;;5012187;28;20046;-87
2022/09/27 04:09:57;;;;;;;6.75;0.70;;;;;;;;;;5027083;28;20058;-86
2022/09/27 04:12:23;;;;;;;3.10;0.50;;;;;;;;;;5013520;28;20042;-87
2022/09/27 04:14:49;;;;;;;4.10;0.50;;;;;;;;;;5010846;28;20038;-86
2022/09/27 04:17:15;;;;;;;3.78;0.60;;;;;;;;;;5011100;28;20543;-87
2022/09/27 04:19:41;;;;;;;4.40;0.70;;;;;;;;;;5013162;28;20099;-86
2022/09/27 04:22:07;;;;;;;3.65;0.60;;;;;;;;;;5000684;28;20092;-89
2022/09/27 04:24:33;;;;;;;5.75;0.77;;;;;;;;;;5008554;28;20060;-86
2022/09/27 04:26:59;;;;;;;5.32;0.80;;;;;;;;;;5004937;28;20041;-86
2022/09/27 04:29:25;;;;;;;8.13;0.73;;;;;;;;;;5014074;28;20044;-87
2022/09/27 04:31:51;;;;;;;6.32;0.70;;;;;;;;;;5013914;28;20384;-86
2022/09/27 04:34:17;;;;;;;6.82;0.88;;;;;;;;;;5002806;28;20042;-86
2022/09/27 04:36:43;;;;;;;2.78;0.60;;;;;;;;;;5012168;28;20124;-86
2022/09/27 04:39:09;;;;;;;5.53;0.60;;;;;;;;;;5014758;28;20112;-85
2022/09/27 04:41:35;;;;;;;4.88;0.77;;;;;;;;;;5006298;28;20044;-86
2022/09/27 04:44:02;;;;;;;5.68;0.80;;;;;;;;;;5011675;28;20041;-85
2022/09/27 04:46:30;;;;;;;5.95;0.90;;;;;;;;;;5011837;28;20133;-86
2022/09/27 04:48:56;;;;;;;3.88;0.77;;;;;;;;;;5012286;28;20484;-87
2022/09/27 04:51:22;;;;;;;5.45;0.70;;;;;;;;;;5014212;28;20572;-85
2022/09/27 04:53:48;;;;;;;5.40;0.80;;;;;;;;;;5013572;28;20053;-86
2022/09/27 04:56:14;;;;;;;7.45;0.80;;;;;;;;;;5045304;28;20042;-86
2022/09/27 04:58:41;;;;;;;6.43;0.65;;;;;;;;;;5010982;28;20513;-86
2022/09/27 05:01:08;;;;;;;7.35;0.90;;;;;;;;;;5012610;28;20480;-87
2022/09/27 05:03:34;;;;;;;8.93;0.77;;;;;;;;;;5005637;28;20050;-86
2022/09/27 05:06:00;;;;;;;6.78;1.10;;;;;;;;;;5000577;28;20081;-86
2022/09/27 05:08:26;;;;;;;8.60;0.80;;;;;;;;;;5009312;28;20085;-87
2022/09/27 05:10:53;;;;;;;9.68;0.80;;;;;;;;;;5010281;28;20121;-86
2022/09/27 05:13:19;;;;;;;5.32;0.95;;;;;;;;;;5011794;28;20077;-85
2022/09/27 05:15:45;;;;;;;3.70;0.60;;;;;;;;;;5011327;28;20038;-86
2022/09/27 05:18:12;;;;;;;6.15;1.08;;;;;;;;;;5006860;28;20057;-87
2022/09/27 05:20:38;;;;;;;5.35;0.82;;;;;;;;;;5011024;28;20120;-86
2022/09/27 05:23:05;;;;;;;7.60;0.90;;;;;;;;;;5011207;28;20046;-86
2022/09/27 05:25:32;;;;;;;7.03;0.90;;;;;;;;;;5010533;28;20050;-86
2022/09/27 05:27:58;;;;;;;6.63;1.02;;;;;;;;;;5009103;28;20050;-87
2022/09/27 05:30:25;;;;;;;3.58;0.60;;;;;;;;;;5001802;28;20569;-85
2022/09/27 05:32:52;;;;;;;3.38;0.70;;;;;;;;;;5006442;28;20444;-85
2022/09/27 05:35:18;;;;;;;5.47;0.80;;;;;;;;;;5011708;28;20050;-85
2022/09/27 05:37:54;;;;;;;6.10;0.90;;;;;;;;;;5000793;28;20042;-86
2022/09/27 05:40:23;;;;;;;3.83;0.60;;;;;;;;;;4996405;28;20046;-86
2022/09/27 05:42:49;;;;;;;7.13;1.00;;;;;;;;;;5010926;28;20117;-86
2022/09/27 05:45:15;;;;;;;6.00;0.73;;;;;;;;;;4992995;28;20038;-86
2022/09/27 05:47:41;;;;;;;4.80;0.80;;;;;;;;;;5011428;28;20117;-86
2022/09/27 05:50:10;;;;;;;5.40;0.60;;;;;;;;;;5027387;28;20050;-87
2022/09/27 05:52:37;;;;;;;7.40;0.90;;;;;;;;;;5012045;28;20034;-85
2022/09/27 05:55:03;;;;;;;6.97;0.90;;;;;;;;;;5010544;28;20463;-85
2022/09/27 05:57:29;;;;;;;5.35;0.65;;;;;;;;;;5010844;28;20058;-87
2022/09/27 05:59:55;;;;;;;7.22;0.75;;;;;;;;;;5007679;28;20069;-86
2022/09/27 06:02:21;;;;;;;6.40;0.90;;;;;;;;;;5008589;28;20046;-86
2022/09/27 06:04:47;;;;;;;8.35;0.95;;;;;;;;;;5008697;28;20575;-85
2022/09/27 06:07:13;;;;;;;5.45;0.75;;;;;;;;;;5010180;28;20100;-84
2022/09/27 06:09:39;;;;;;;6.43;0.90;;;;;;;;;;5008666;28;20096;-87
2022/09/27 06:12:10;;;;;;;8.55;0.98;;;;;;;;;;5012141;28;20038;-85
2022/09/27 06:14:37;;;;;;;6.68;0.90;;;;;;;;;;5007648;28;20197;-87
2022/09/27 06:17:03;;;;;;;6.95;0.90;;;;;;;;;;5001764;28;20089;-86
2022/09/27 06:19:29;;;;;;;6.43;0.80;;;;;;;;;;5008475;28;20042;-86
2022/09/27 06:21:55;;;;;;;4.00;0.70;;;;;;;;;;5000945;28;20057;-85
2022/09/27 06:24:21;;;;;;;5.75;1.02;;;;;;;;;;5011924;28;20499;-85
2022/09/27 06:26:47;;;;;;;6.22;0.80;;;;;;;;;;5012400;28;20042;-84
2022/09/27 06:29:14;;;;;;;5.70;0.70;;;;;;;;;;5012017;28;20049;-88
2022/09/27 06:31:39;;;;;;;6.35;0.70;;;;;;;;;;5012563;28;20502;-85
2022/09/27 06:34:07;;;;;;;6.30;0.77;;;;;;;;;;5044658;28;20050;-86
2022/09/27 06:36:33;;;;;;;5.80;0.80;;;;;;;;;;5012987;28;20057;-85
2022/09/27 06:39:00;;;;;;;5.80;0.95;;;;;;;;;;5010755;28;20064;-85
2022/09/27 06:41:26;;;;;;;5.50;0.75;;;;;;;;;;5006087;28;20519;-84
2022/09/27 06:43:52;;;;;;;7.32;0.93;;;;;;;;;;5018663;28;20125;-86
2022/09/27 06:46:18;;;;;;;6.47;0.73;;;;;;;;;;5011838;28;20173;-84
2022/09/27 06:48:44;;;;;;;7.28;0.98;;;;;;;;;;5011950;28;20061;-83
2022/09/27 06:51:10;;;;;;;7.53;0.90;;;;;;;;;;4994939;28;20050;-85
2022/09/27 06:53:36;;;;;;;5.95;1.10;;;;;;;;;;4993747;28;20092;-85
2022/09/27 06:56:02;;;;;;;5.95;0.88;;;;;;;;;;5007262;28;20042;-85
2022/09/27 07:01:14;;;;;;;5.43;0.70;;;;;;;;;;5013013;28;20050;-83
2022/09/27 07:03:43;;;;;;;9.02;1.05;;;;;;;;;;5012442;28;20045;-84
2022/09/27 07:06:16;;;;;;;4.80;1.10;;;;;;;;;;5007848;28;20096;-85
2022/09/27 07:08:42;;;;;;;9.20;1.33;;;;;;;;;;5019283;28;20053;-83
2022/09/27 07:11:08;;;;;;;10.35;1.08;;;;;;;;;;5014904;28;20555;-85
2022/09/27 07:13:39;;;;;;;9.23;1.10;;;;;;;;;;5015968;28;20487;-86
2022/09/27 07:16:05;;;;;;;6.10;0.93;;;;;;;;;;5062195;28;20045;-85
2022/09/27 07:18:31;;;;;;;5.75;1.20;;;;;;;;;;5018211;28;20407;-84
2022/09/27 07:20:59;;;;;;;6.40;1.05;;;;;;;;;;5022862;28;20072;-84
2022/09/27 07:23:25;;;;;;;7.55;1.20;;;;;;;;;;5004157;28;20407;-85
2022/09/27 07:25:51;;;;;;;5.75;1.27;;;;;;;;;;5046701;28;20058;-84
2022/09/27 07:28:18;;;;;;;5.65;1.00;;;;;;;;;;5005948;28;20129;-85
2022/09/27 07:30:47;;;;;;;6.50;1.08;;;;;;;;;;5015211;28;20069;-85
2022/09/27 07:33:13;;;;;;;8.38;1.48;;;;;;;;;;5011889;28;20042;-85
2022/09/27 07:35:40;;;;;;;5.40;0.77;;;;;;;;;;5014770;28;20049;-85
2022/09/27 07:38:11;;;;;;;6.50;0.90;;;;;;;;;;5015590;28;20038;-84
2022/09/27 07:40:37;;;;;;;6.30;0.80;;;;;;;;;;5015845;28;20124;-85
2022/09/27 07:43:03;;;;;;;5.28;0.98;;;;;;;;;;5014465;28;20053;-85
2022/09/27 07:45:30;;;;;;;4.72;0.75;;;;;;;;;;5020081;28;20048;-82
2022/09/27 07:47:56;;;;;;;4.72;0.93;;;;;;;;;;5013728;28;20049;-84
2022/09/27 07:50:22;;;;;;;7.97;0.68;;;;;;;;;;5008856;28;20234;-85
2022/09/27 07:52:50;;;;;;;4.53;0.73;;;;;;;;;;5007799;28;20141;-83
2022/09/27 07:55:16;;;;;;;5.15;0.90;;;;;;;;;;5020124;28;20052;-83
2022/09/27 07:57:45;;;;;;;5.60;0.68;;;;;;;;;;5014888;28;20053;-83
2022/09/27 08:00:13;;;;;;;7.78;0.85;;;;;;;;;;5015638;28;20045;-85
2022/09/27 08:02:40;;;;;;;3.47;0.63;;;;;;;;;;5015530;28;20050;-83
2022/09/27 08:05:06;;;;;;;9.32;1.13;;;;;;;;;;5015196;28;20085;-84
2022/09/27 08:07:32;;;;;;;5.95;0.80;;;;;;;;;;5017285;28;20058;-84
2022/09/27 08:09:58;;;;;;;5.90;0.70;;;;;;;;;;5024422;28;20462;-83
2022/09/27 08:12:24;;;;;;;5.90;0.70;;;;;;;;;;5010234;28;20139;-84
2022/09/27 08:14:51;;;;;;;5.55;0.70;;;;;;;;;;5014891;28;20081;-83
2022/09/27 08:17:18;;;;;;;5.80;0.70;;;;;;;;;;5044349;28;20041;-85
2022/09/27 08:19:47;;;;;;;4.10;0.63;;;;;;;;;;5012799;28;20054;-85
2022/09/27 08:22:13;;;;;;;6.28;0.98;;;;;;;;;;5012954;28;20504;-85
2022/09/27 08:24:39;;;;;;;8.02;1.00;;;;;;;;;;5044692;28;20072;-87
2022/09/27 08:27:07;;;;;;;6.43;0.80;;;;;;;;;;5010778;28;20053;-85
2022/09/27 08:29:34;;;;;;;5.35;0.80;;;;;;;;;;5011011;28;20052;-84
2022/09/27 08:32:00;;;;;;;5.03;0.75;;;;;;;;;;5012659;28;20049;-84
2022/09/27 08:34:27;;;;;;;7.13;1.08;;;;;;;;;;5011364;28;20177;-85
2022/09/27 08:36:54;;;;;;;6.43;0.85;;;;;;;;;;5013541;28;20048;-83
2022/09/27 08:39:20;;;;;;;8.55;1.15;;;;;;;;;;5013736;28;20054;-84
2022/09/27 08:42:05;;;;;;;4.85;1.00;;;;;;;;;;5014598;28;20108;-84
2022/09/27 08:44:50;;;;;;;4.82;0.77;;;;;;;;;;5015824;28;20088;-86
2022/09/27 08:47:24;;;;;;;5.35;0.80;;;;;;;;;;5008965;28;20042;-85
2022/09/27 08:49:57;;;;;;;5.15;0.93;;;;;;;;;;5010105;28;20100;-84
2022/09/27 08:52:27;;;;;;;4.03;0.70;;;;;;;;;;5011202;28;20042;-83
2022/09/27 08:54:55;;;;;;;6.57;1.10;;;;;;;;;;5012212;28;20194;-84
2022/09/27 08:57:23;;;;;;;8.18;0.80;;;;;;;;;;5010939;28;20050;-83
2022/09/27 09:00:02;;;;;;;4.63;0.80;;;;;;;;;;5008568;28;20038;-83
2022/09/27 09:02:28;;;;;;;3.45;0.77;;;;;;;;;;5007595;28;20176;-83
2022/09/27 09:04:56;;;;;;;1.83;0.50;;;;;;;;;;5007414;28;20041;-84
2022/09/27 09:07:28;;;;;;;5.32;0.85;;;;;;;;;;5021016;28;20034;-83
2022/09/27 09:10:00;;;;;;;5.15;0.68;;;;;;;;;;5002722;28;20137;-84
2022/09/27 09:15:25;;;;;;;4.97;0.60;;;;;;;;;;5010318;28;20054;-82
2022/09/27 09:17:51;;;;;;;4.97;0.73;;;;;;;;;;5020553;28;20038;-82
2022/09/27 09:20:33;;;;;;;3.80;0.73;;;;;;;;;;5011260;28;20479;-82
2022/09/27 09:23:04;;;;;;;3.85;0.40;;;;;;;;;;5012221;28;20038;-82
2022/09/27 09:25:30;;;;;;;1.40;0.50;;;;;;;;;;5011381;28;20531;-84
2022/09/27 09:27:56;;;;;;;3.70;0.73;;;;;;;;;;5010482;28;20042;-84
2022/09/27 09:30:24;;;;;;;3.63;0.90;;;;;;;;;;5012140;28;20050;-83
2022/09/27 09:33:10;;;;;;;7.38;0.60;;;;;;;;;;5009829;28;20404;-85
2022/09/27 09:35:48;;;;;;;5.00;0.57;;;;;;;;;;5012103;28;20088;-82
2022/09/27 09:38:18;;;;;;;4.40;0.60;;;;;;;;;;5011743;28;20093;-83
2022/09/27 09:41:05;;;;;;;5.13;0.60;;;;;;;;;;5023951;28;20108;-83
2022/09/27 09:43:38;;;;;;;3.55;0.60;;;;;;;;;;5019996;28;20494;-83
2022/09/27 09:46:12;;;;;;;4.15;0.52;;;;;;;;;;5011285;28;20575;-84
2022/09/27 09:48:42;;;;;;;5.22;0.80;;;;;;;;;;5011475;28;20041;-84
2022/09/27 09:51:11;;;;;;;5.97;0.60;;;;;;;;;;5018361;28;20060;-82
2022/09/27 09:53:56;;;;;;;3.22;0.60;;;;;;;;;;5017131;28;20081;-83
2022/09/27 09:56:25;;;;;;;6.40;0.93;;;;;;;;;;5012037;28;20104;-82
2022/09/27 09:58:54;;;;;;;3.05;0.60;;;;;;;;;;5012044;28;20054;-83
2022/09/27 10:01:21;;;;;;;3.63;0.70;;;;;;;;;;5010307;28;20527;-83
2022/09/27 10:03:48;;;;;;;3.22;0.50;;;;;;;;;;5008794;28;20097;-83
2022/09/27 10:06:15;;;;;;;5.70;0.50;;;;;;;;;;5011178;28;20122;-82
2022/09/27 10:08:41;;;;;;;6.75;0.60;;;;;;;;;;5042969;28;20061;-82
2022/09/27 10:11:13;;;;;;;2.65;0.47;;;;;;;;;;5027320;28;20034;-84
2022/09/27 10:13:39;;;;;;;3.78;0.47;;;;;;;;;;5021193;28;20021;-83
2022/09/27 10:16:09;;;;;;;4.57;0.50;;;;;;;;;;5012263;28;20086;-83
2022/09/27 10:18:36;;;;;;;1.95;0.30;;;;;;;;;;5002919;28;20042;-84
2022/09/27 10:21:06;;;;;;;5.95;0.60;;;;;;;;;;5008137;28;20046;-82
2022/09/27 10:23:32;;;;;;;4.30;0.70;;;;;;;;;;5010262;28;20072;-81
2022/09/27 10:25:59;;;;;;;4.68;0.68;;;;;;;;;;5010038;28;20468;-83
2022/09/27 10:28:36;;;;;;;4.43;0.85;;;;;;;;;;5009024;28;20155;-82
2022/09/27 10:31:03;;;;;;;4.80;0.80;;;;;;;;;;5011167;28;20069;-84
2022/09/27 10:33:31;;;;;;;4.50;0.93;;;;;;;;;;5008757;28;20037;-83
2022/09/27 10:35:57;;;;;;;5.55;1.50;;;;;;;;;;5010467;28;20050;-82
2022/09/27 10:38:28;;;;;;;6.90;1.08;;;;;;;;;;5010507;28;20067;-82
2022/09/27 10:40:55;;;;;;;4.93;0.80;;;;;;;;;;5011390;28;20400;-81
2022/09/27 10:43:32;;;;;;;3.88;0.63;;;;;;;;;;4995348;28;20128;-82
2022/09/27 10:46:00;;;;;;;6.07;0.90;;;;;;;;;;5012295;28;20041;-83
2022/09/27 10:48:26;;;;;;;4.43;0.90;;;;;;;;;;5013941;28;20109;-84
2022/09/27 10:50:58;;;;;;;5.85;0.90;;;;;;;;;;5012428;28;20141;-82
2022/09/27 10:53:24;;;;;;;9.40;0.93;;;;;;;;;;5015132;28;20069;-85
2022/09/27 10:55:51;;;;;;;2.83;0.57;;;;;;;;;;5011784;28;20065;-85
2022/09/27 10:58:19;;;;;;;2.45;0.50;;;;;;;;;;5010079;28;20050;-87
2022/09/27 11:00:53;;;;;;;1.10;0.30;;;;;;;;;;4994870;28;20099;-85
2022/09/27 11:03:20;;;;;;;4.57;0.47;;;;;;;;;;5017116;28;20426;-87
2022/09/27 11:05:46;;;;;;;1.50;0.30;;;;;;;;;;5011905;28;20049;-86
2022/09/27 11:08:18;;;;;;;0.50;0.30;;;;;;;;;;5015904;28;20046;-87
2022/09/27 11:10:44;;;;;;;1.25;0.40;;;;;;;;;;5010845;28;20573;-91
2022/09/27 11:13:15;;;;;;;1.73;0.30;;;;;;;;;;5018764;28;20139;-89
2022/09/27 11:16:00;;;;;;;1.52;0.40;;;;;;;;;;5021165;28;20534;-88
2022/09/27 11:18:29;;;;;;;2.28;0.35;;;;;;;;;;5018612;28;20447;-90
2022/09/27 11:21:19;;;;;;;1.75;0.30;;;;;;;;;;5025066;28;20045;-90
2022/09/27 11:23:51;;;;;;;0.90;0.20;;;;;;;;;;5018924;28;20061;-89
2022/09/27 11:26:26;;;;;;;0.40;0.20;;;;;;;;;;5015122;28;20061;-89
2022/09/27 11:29:02;;;;;;;3.30;0.60;;;;;;;;;;5048684;28;20452;-89
2022/09/27 11:31:39;;;;;;;1.42;0.30;;;;;;;;;;5021577;28;20042;-91
2022/09/27 11:34:14;;;;;;;2.17;0.30;;;;;;;;;;5023543;28;20045;-88
2022/09/27 11:36:40;;;;;;;4.40;0.40;;;;;;;;;;5025059;28;20504;-90
2022/09/27 11:39:21;;;;;;;2.22;0.40;;;;;;;;;;5025850;28;20045;-89
2022/09/27 11:41:54;;;;;;;1.80;0.38;;;;;;;;;;5022992;28;20049;-90
2022/09/27 11:44:26;;;;;;;0.75;0.20;;;;;;;;;;5024706;28;20096;-89
2022/09/27 11:47:07;;;;;;;2.03;0.40;;;;;;;;;;5024122;28;20045;-88
2022/09/27 11:49:33;;;;;;;;;;;;;;;;;;5026797;28;20049;-90
2022/09/27 11:52:03;;;;;;;1.45;0.30;;;;;;;;;;5019669;28;19947;-90
2022/09/27 11:54:44;;;;;;;2.70;0.50;;;;;;;;;;5016130;28;20041;-88
2022/09/27 11:57:10;;;;;;;;;;;;;;;;;;5022198;28;20430;-91
2022/09/27 11:59:39;;;;;;;2.83;0.50;;;;;;;;;;5018069;28;19987;-88
2022/09/27 12:02:19;;;;;;;2.22;0.30;;;;;;;;;;5018547;28;20041;-89
2022/09/27 12:04:50;;;;;;;2.75;0.30;;;;;;;;;;5030436;28;20048;-89
2022/09/27 12:07:17;;;;;;;2.50;0.20;;;;;;;;;;5031465;28;20057;-89
2022/09/27 12:09:45;;;;;;;0.73;0.32;;;;;;;;;;5039113;28;20412;-89
2022/09/27 12:12:14;;;;;;;3.05;0.30;;;;;;;;;;5021869;28;20048;-89
2022/09/27 12:14:55;;;;;;;1.10;0.20;;;;;;;;;;5027384;28;20053;-89
2022/09/27 12:17:26;;;;;;;1.33;0.20;;;;;;;;;;5009977;28;20050;-89
2022/09/27 12:19:54;;;;;;;3.15;0.30;;;;;;;;;;5013011;28;20151;-90
2022/09/27 12:22:28;;;;;;;1.13;0.30;;;;;;;;;;5015632;28;20034;-90
2022/09/27 12:24:54;;;;;;;2.20;0.30;;;;;;;;;;5010410;28;20111;-89
2022/09/27 12:27:26;;;;;;;6.43;0.50;;;;;;;;;;5008436;28;20053;-89
2022/09/27 12:29:55;;;;;;;2.72;0.90;;;;;;;;;;5008955;28;20104;-88
2022/09/27 12:32:31;;;;;;;3.13;0.70;;;;;;;;;;5017690;28;20041;-91
2022/09/27 12:34:57;;;;;;;2.00;0.60;;;;;;;;;;5015166;28;20416;-90
2022/09/27 12:37:50;;;;;;;4.30;0.60;;;;;;;;;;5008776;28;20049;-88
2022/09/27 12:40:27;;;;;;;3.30;0.40;;;;;;;;;;4990189;28;20056;-88
2022/09/27 12:43:07;;;;;;;5.38;0.50;;;;;;;;;;5002542;28;20045;-88
2022/09/27 12:45:52;;;;;;;2.55;0.50;;;;;;;;;;5011352;28;20038;-88
2022/09/27 12:48:24;;;;;;;2.88;0.43;;;;;;;;;;5012454;28;20041;-88
2022/09/27 12:50:53;;;;;;;3.97;0.57;;;;;;;;;;5021383;28;20097;-88
2022/09/27 12:53:42;;;;;;;3.90;0.68;;;;;;;;;;5014332;28;20042;-88
2022/09/27 12:56:10;;;;;;;5.25;0.80;;;;;;;;;;4970482;28;20461;-87
2022/09/27 12:58:51;;;;;;;6.22;0.55;;;;;;;;;;4955440;28;20467;-87
2022/09/27 13:01:20;;;;;;;4.15;0.90;;;;;;;;;;4968430;28;20728;-86
2022/09/27 13:03:46;;;;;;;4.75;0.60;;;;;;;;;;4970170;28;20149;-88
2022/09/27 13:06:30;;;;;;;1.63;0.50;;;;;;;;;;4969154;28;20051;-88
2022/09/27 13:09:15;;;;;;;2.45;0.57;;;;;;;;;;4949384;28;20063;-87
2022/09/27 13:12:00;;;;;;;3.25;0.60;;;;;;;;;;4975031;28;20073;-87
2022/09/27 13:14:28;;;;;;;4.78;0.75;;;;;;;;;;4974054;28;20106;-88
2022/09/27 13:16:54;;;;;;;4.82;1.00;;;;;;;;;;4966264;28;20115;-88
2022/09/27 13:19:35;;;;;;;4.20;1.20;;;;;;;;;;4970850;28;20139;-88
2022/09/27 13:22:03;;;;;;;4.60;1.20;;;;;;;;;;4972732;28;20131;-88
2022/09/27 13:24:42;;;;;;;3.75;1.00;;;;;;;;;;4972746;28;20087;-89
2022/09/27 13:27:23;;;;;;;4.78;0.80;;;;;;;;;;4971680;28;20061;-89
2022/09/27 13:29:50;;;;;;;5.50;0.90;;;;;;;;;;4972612;28;20099;-88
2022/09/27 13:32:17;;;;;;;5.55;0.70;;;;;;;;;;4982354;28;20069;-86
2022/09/27 13:34:47;;;;;;;9.45;1.15;;;;;;;;;;4996728;28;20046;-86
2022/09/27 13:37:28;;;;;;;8.00;0.90;;;;;;;;;;4996447;28;20082;-84
2022/09/27 13:40:11;;;;;;;5.05;0.80;;;;;;;;;;4996815;28;20385;-85
2022/09/27 13:42:40;;;;;;;4.53;0.60;;;;;;;;;;5014589;28;20049;-84
2022/09/27 13:45:16;;;;;;;4.45;0.90;;;;;;;;;;5041418;28;20034;-85
2022/09/27 13:47:45;;;;;;;3.25;0.90;;;;;;;;;;5020106;28;20050;-85
2022/09/27 13:50:18;;;;;;;3.10;0.70;;;;;;;;;;5029753;28;20111;-87
2022/09/27 13:52:46;;;;;;;2.33;0.60;;;;;;;;;;5064966;28;20050;-88
2022/09/27 13:55:34;;;;;;;2.08;0.40;;;;;;;;;;5042507;28;20049;-89
2022/09/27 13:58:02;;;;;;;2.22;0.40;;;;;;;;;;5029832;28;20087;-90
2022/09/27 14:00:39;;;;;;;2.33;0.40;;;;;;;;;;5030369;28;20096;-89
2022/09/27 14:03:10;;;;;;;1.75;0.40;;;;;;;;;;5024325;28;20065;-90
2022/09/27 14:05:47;;;;;;;2.17;0.50;;;;;;;;;;5027370;28;20055;-90
2022/09/27 14:08:23;;;;;;;1.95;0.30;;;;;;;;;;5019206;28;20054;-90
2022/09/27 14:10:50;;;;;;;2.67;0.63;;;;;;;;;;5016551;28;20564;-92
2022/09/27 14:13:21;;;;;;;5.38;1.60;;;;;;;;;;5019936;28;20220;-92
2022/09/27 14:15:49;;;;;;;4.72;1.30;;;;;;;;;;5023283;28;20037;-91
2022/09/27 14:18:15;;;;;;;5.68;1.45;;;;;;;;;;5027273;28;20038;-89
2022/09/27 14:20:43;;;;;;;4.55;0.90;;;;;;;;;;5025629;28;20057;-89
2022/09/27 14:23:17;;;;;;;4.65;0.73;;;;;;;;;;5026616;28;20052;-86
2022/09/27 14:25:47;;;;;;;4.18;0.73;;;;;;;;;;5026395;28;20052;-84
2022/09/27 14:28:27;;;;;;;4.47;1.00;;;;;;;;;;5043982;28;20087;-83
2022/09/27 14:31:11;;;;;;;3.20;0.65;;;;;;;;;;5051988;28;20056;-84
2022/09/27 14:33:38;;;;;;;6.10;1.02;;;;;;;;;;5002489;28;20050;-81
2022/09/27 14:38:51;;;;;;;4.63;0.80;;;;;;;;;;5032094;28;20041;-81
2022/09/27 14:41:17;;;;;;;3.40;0.85;;;;;;;;;;5038863;28;20018;-82
2022/09/27 14:43:44;;;;;;;2.83;0.60;;;;;;;;;;5039012;28;20072;-83
2022/09/27 14:46:24;;;;;;;3.53;0.60;;;;;;;;;;5034244;28;20042;-85
2022/09/27 14:48:50;;;;;;;5.10;0.80;;;;;;;;;;5038382;28;20050;-85
2022/09/27 14:51:19;;;;;;;4.38;0.70;;;;;;;;;;5038097;28;20041;-86
2022/09/27 14:53:49;;;;;;;3.28;0.55;;;;;;;;;;5032584;28;20046;-87
2022/09/27 14:56:21;;;;;;;2.53;0.50;;;;;;;;;;5037146;28;20053;-87
2022/09/27 14:58:50;;;;;;;4.28;0.60;;;;;;;;;;5036763;28;20030;-89
2022/09/27 15:01:16;;;;;;;1.98;0.50;;;;;;;;;;5038283;28;20033;-90
2022/09/27 15:03:44;;;;;;;3.50;0.60;;;;;;;;;;5055498;28;20030;-89
2022/09/27 15:06:10;;;;;;;3.25;0.70;;;;;;;;;;5030938;28;20042;-91